createdAt,value
2019-03-23T00:00:26.731Z,121.05
2019-03-23T00:01:32.345Z,127.82
2019-03-23T00:02:37.577Z,129.27
2019-03-23T00:03:42.733Z,142.20
2019-03-23T00:04:47.892Z,145.30
2019-03-23T00:05:53.034Z,145.95
2019-03-23T00:06:58.296Z,145.25
2019-03-23T00:08:03.749Z,127.58
2019-03-23T00:09:08.896Z,128.10
2019-03-23T00:10:14.516Z,127.97
2019-03-23T00:11:19.746Z,149.35
2019-03-23T00:12:24.908Z,136.00
2019-03-23T00:13:30.083Z,135.57
2019-03-23T00:14:35.248Z,140.68
2019-03-23T00:15:40.424Z,137.47
2019-03-23T00:16:45.649Z,139.85
2019-03-23T00:17:50.887Z,137.57
2019-03-23T00:18:56.095Z,143.95
2019-03-23T00:20:01.328Z,146.53
2019-03-23T00:21:06.511Z,141.90
2019-03-23T00:22:11.743Z,133.78
2019-03-23T00:23:16.969Z,151.22
2019-03-23T00:24:22.171Z,139.18
2019-03-23T00:25:27.331Z,145.02
2019-03-23T00:26:32.479Z,136.90
2019-03-23T00:27:37.938Z,132.37
2019-03-23T00:28:43.142Z,144.00
2019-03-23T00:29:48.302Z,138.50
2019-03-23T00:30:53.501Z,133.57
2019-03-23T00:31:58.760Z,141.05
2019-03-23T00:33:04.021Z,142.13
2019-03-23T00:34:09.174Z,151.45
2019-03-23T00:35:14.541Z,144.45
2019-03-23T00:36:19.727Z,124.65
2019-03-23T00:37:24.906Z,135.68
2019-03-23T00:38:30.122Z,140.80
2019-03-23T00:39:35.347Z,269.93
2019-03-23T00:40:40.548Z,182.93
2019-03-23T00:41:45.706Z,175.00
2019-03-23T00:42:51.873Z,159.67
2019-03-23T00:43:57.027Z,153.30
2019-03-23T00:45:02.196Z,136.03
2019-03-23T00:46:07.503Z,132.80
2019-03-23T00:47:12.785Z,132.20
2019-03-23T00:48:18.031Z,236.52
2019-03-23T00:49:23.176Z,200.87
2019-03-23T00:50:28.312Z,150.75
2019-03-23T00:51:33.646Z,136.07
2019-03-23T00:52:38.784Z,150.95
2019-03-23T00:53:43.971Z,138.40
2019-03-23T00:54:49.111Z,134.07
2019-03-23T00:55:54.224Z,130.90
2019-03-23T00:56:59.435Z,123.62
2019-03-23T00:58:04.698Z,140.35
2019-03-23T00:59:09.859Z,133.43
2019-03-23T01:00:16.359Z,139.68
2019-03-23T01:01:21.487Z,128.65
2019-03-23T01:02:26.609Z,128.02
2019-03-23T01:03:32.807Z,142.68
2019-03-23T01:04:38.092Z,126.85
2019-03-23T01:05:43.207Z,132.87
2019-03-23T01:06:52.430Z,137.43
2019-03-23T01:07:55.231Z,131.45
2019-03-23T01:09:00.706Z,125.67
2019-03-23T01:10:09.323Z,143.47
2019-03-23T01:11:14.471Z,129.80
2019-03-23T01:12:19.626Z,130.37
2019-03-23T01:13:24.769Z,137.10
2019-03-23T01:14:29.904Z,123.82
2019-03-23T01:15:35.092Z,117.72
2019-03-23T01:16:40.230Z,137.20
2019-03-23T01:17:45.349Z,120.47
2019-03-23T01:18:50.535Z,130.10
2019-03-23T01:19:55.727Z,122.67
2019-03-23T01:21:00.917Z,132.52
2019-03-23T01:22:06.149Z,122.13
2019-03-23T01:23:11.291Z,121.05
2019-03-23T01:24:16.413Z,126.25
2019-03-23T01:25:21.565Z,130.70
2019-03-23T01:26:26.706Z,127.80
2019-03-23T01:27:31.860Z,122.98
2019-03-23T01:28:37.050Z,115.05
2019-03-23T01:29:42.448Z,113.22
2019-03-23T01:30:47.613Z,117.35
2019-03-23T01:31:55.513Z,136.77
2019-03-23T01:33:00.639Z,128.78
2019-03-23T01:34:05.856Z,123.67
2019-03-23T01:35:11.671Z,126.97
2019-03-23T01:36:16.862Z,119.20
2019-03-23T01:37:22.845Z,124.42
2019-03-23T01:38:28.001Z,121.72
2019-03-23T01:39:34.072Z,125.00
2019-03-23T01:40:39.216Z,113.40
2019-03-23T01:41:44.372Z,117.62
2019-03-23T01:42:49.612Z,123.00
2019-03-23T01:43:54.728Z,114.37
2019-03-23T01:44:59.958Z,115.82
2019-03-23T01:46:05.128Z,120.22
2019-03-23T01:47:10.283Z,121.97
2019-03-23T01:48:15.432Z,124.53
2019-03-23T01:49:20.558Z,117.10
2019-03-23T01:50:25.801Z,119.77
2019-03-23T01:51:31.028Z,124.00
2019-03-23T01:52:36.305Z,112.17
2019-03-23T01:53:42.539Z,123.90
2019-03-23T01:54:47.751Z,122.28
2019-03-23T01:55:52.865Z,117.65
2019-03-23T01:56:58.007Z,124.75
2019-03-23T01:58:03.189Z,112.60
2019-03-23T01:59:08.394Z,113.83
2019-03-23T02:00:14.998Z,117.40
2019-03-23T02:01:20.155Z,120.70
2019-03-23T02:02:25.412Z,110.45
2019-03-23T02:03:30.596Z,126.53
2019-03-23T02:04:35.776Z,126.40
2019-03-23T02:05:40.908Z,130.22
2019-03-23T02:06:46.083Z,111.00
2019-03-23T02:07:51.247Z,130.50
2019-03-23T02:08:56.400Z,121.97
2019-03-23T02:10:01.533Z,119.93
2019-03-23T02:11:06.720Z,123.62
2019-03-23T02:12:11.843Z,135.25
2019-03-23T02:13:17.032Z,128.80
2019-03-23T02:14:22.344Z,132.52
2019-03-23T02:15:28.479Z,185.52
2019-03-23T02:16:33.646Z,125.38
2019-03-23T02:17:39.922Z,151.80
2019-03-23T02:18:45.189Z,207.80
2019-03-23T02:19:50.352Z,144.87
2019-03-23T02:20:56.196Z,135.65
2019-03-23T02:22:01.323Z,144.00
2019-03-23T02:23:06.494Z,138.05
2019-03-23T02:24:11.712Z,164.47
2019-03-23T02:25:16.858Z,138.28
2019-03-23T02:26:21.993Z,125.65
2019-03-23T02:27:27.178Z,169.57
2019-03-23T02:28:32.350Z,140.30
2019-03-23T02:29:37.516Z,152.72
2019-03-23T02:30:42.671Z,144.62
2019-03-23T02:31:47.798Z,181.80
2019-03-23T02:32:53.039Z,139.88
2019-03-23T02:33:58.211Z,139.20
2019-03-23T02:35:03.472Z,135.15
2019-03-23T02:36:08.592Z,147.10
2019-03-23T02:37:26.961Z,137.12
2019-03-23T02:38:20.682Z,143.75
2019-03-23T02:39:25.885Z,173.43
2019-03-23T02:40:31.012Z,143.15
2019-03-23T02:41:36.184Z,153.60
2019-03-23T02:42:41.312Z,152.60
2019-03-23T02:43:46.509Z,187.00
2019-03-23T02:44:51.874Z,146.22
2019-03-23T02:45:57.060Z,139.82
2019-03-23T02:47:02.238Z,252.68
2019-03-23T02:48:07.481Z,204.38
2019-03-23T02:49:12.697Z,172.50
2019-03-23T02:50:17.847Z,136.35
2019-03-23T02:51:23.202Z,146.02
2019-03-23T02:52:28.432Z,147.95
2019-03-23T02:53:33.583Z,191.28
2019-03-23T02:54:38.787Z,138.88
2019-03-23T02:55:43.898Z,140.52
2019-03-23T02:56:49.061Z,142.10
2019-03-23T02:57:54.173Z,145.53
2019-03-23T02:58:59.298Z,132.78
2019-03-23T03:00:06.394Z,140.52
2019-03-23T03:01:11.699Z,147.07
2019-03-23T03:02:16.874Z,137.43
2019-03-23T03:03:22.011Z,181.50
2019-03-23T03:04:27.323Z,129.20
2019-03-23T03:05:32.557Z,136.70
2019-03-23T03:06:37.705Z,136.50
2019-03-23T03:07:43.846Z,137.97
2019-03-23T03:08:50.343Z,143.60
2019-03-23T03:09:55.502Z,127.53
2019-03-23T03:11:00.681Z,124.60
2019-03-23T03:12:05.935Z,137.65
2019-03-23T03:13:11.345Z,235.85
2019-03-23T03:14:16.562Z,170.90
2019-03-23T03:15:21.794Z,120.22
2019-03-23T03:16:27.271Z,127.90
2019-03-23T03:17:32.435Z,140.00
2019-03-23T03:18:37.542Z,137.75
2019-03-23T03:19:42.705Z,133.52
2019-03-23T03:20:49.008Z,138.18
2019-03-23T03:21:54.261Z,126.58
2019-03-23T03:22:59.458Z,133.43
2019-03-23T03:24:04.582Z,139.32
2019-03-23T03:25:09.947Z,125.45
2019-03-23T03:26:15.069Z,125.50
2019-03-23T03:27:20.223Z,125.07
2019-03-23T03:28:25.559Z,132.55
2019-03-23T03:29:30.688Z,113.68
2019-03-23T03:30:35.886Z,122.20
2019-03-23T03:31:41.116Z,117.47
2019-03-23T03:32:46.298Z,118.10
2019-03-23T03:33:51.488Z,126.72
2019-03-23T03:34:56.698Z,124.95
2019-03-23T03:36:01.947Z,122.35
2019-03-23T03:37:07.053Z,106.95
2019-03-23T03:38:12.302Z,107.87
2019-03-23T03:39:17.474Z,120.67
2019-03-23T03:40:22.643Z,116.12
2019-03-23T03:41:28.041Z,109.20
2019-03-23T03:42:33.169Z,110.80
2019-03-23T03:43:38.268Z,109.83
2019-03-23T03:44:43.536Z,100.60
2019-03-23T03:45:48.652Z,95.17
2019-03-23T03:46:53.776Z,118.50
2019-03-23T03:47:58.975Z,180.97
2019-03-23T03:49:12.262Z,121.17
2019-03-23T03:50:12.714Z,120.45
2019-03-23T03:51:17.848Z,186.95
2019-03-23T03:52:23.061Z,140.45
2019-03-23T03:53:28.212Z,136.95
2019-03-23T03:54:33.389Z,96.12
2019-03-23T03:55:39.510Z,153.25
2019-03-23T03:56:44.665Z,100.50
2019-03-23T03:57:49.851Z,105.15
2019-03-23T03:58:54.976Z,136.72
2019-03-23T04:00:00.530Z,98.37
2019-03-23T04:01:11.300Z,101.33
2019-03-23T04:02:16.466Z,112.68
2019-03-23T04:03:21.660Z,129.55
2019-03-23T04:04:26.786Z,99.77
2019-03-23T04:05:31.890Z,99.17
2019-03-23T04:06:37.022Z,150.10
2019-03-23T04:07:42.351Z,106.52
2019-03-23T04:08:48.483Z,89.25
2019-03-23T04:09:53.613Z,100.87
2019-03-23T04:10:58.786Z,92.67
2019-03-23T04:12:03.920Z,111.70
2019-03-23T04:13:09.130Z,87.22
2019-03-23T04:14:14.258Z,83.80
2019-03-23T04:15:19.357Z,90.92
2019-03-23T04:16:24.516Z,104.27
2019-03-23T04:17:29.646Z,124.55
2019-03-23T04:18:34.817Z,92.40
2019-03-23T04:19:39.974Z,99.70
2019-03-23T04:20:45.107Z,155.35
2019-03-23T04:21:50.272Z,83.15
2019-03-23T04:22:55.388Z,104.92
2019-03-23T04:24:00.538Z,92.15
2019-03-23T04:25:07.240Z,105.30
2019-03-23T04:26:12.490Z,126.15
2019-03-23T04:27:17.659Z,136.70
2019-03-23T04:28:22.804Z,150.53
2019-03-23T04:29:27.977Z,244.22
2019-03-23T04:30:33.105Z,129.30
2019-03-23T04:31:38.244Z,148.55
2019-03-23T04:32:43.423Z,158.45
2019-03-23T04:33:48.555Z,91.40
2019-03-23T04:34:53.690Z,123.62
2019-03-23T04:35:59.811Z,92.35
2019-03-23T04:37:05.202Z,164.82
2019-03-23T04:38:21.927Z,98.82
2019-03-23T04:39:17.151Z,86.97
2019-03-23T04:40:22.338Z,88.78
2019-03-23T04:41:27.484Z,84.47
2019-03-23T04:42:32.683Z,81.67
2019-03-23T04:43:37.855Z,81.72
2019-03-23T04:44:43.079Z,82.90
2019-03-23T04:45:48.255Z,156.18
2019-03-23T04:46:53.409Z,97.57
2019-03-23T04:47:58.549Z,139.68
2019-03-23T04:49:09.346Z,113.40
2019-03-23T04:50:14.639Z,108.65
2019-03-23T04:51:19.779Z,93.10
2019-03-23T04:52:25.036Z,86.53
2019-03-23T04:53:30.183Z,81.50
2019-03-23T04:54:35.367Z,75.20
2019-03-23T04:55:40.867Z,114.15
2019-03-23T04:56:46.058Z,144.25
2019-03-23T04:57:51.243Z,130.87
2019-03-23T04:58:56.379Z,150.32
2019-03-23T05:00:01.520Z,98.65
2019-03-23T05:01:06.693Z,112.85
2019-03-23T05:02:11.993Z,89.65
2019-03-23T05:03:17.162Z,87.72
2019-03-23T05:04:22.328Z,84.15
2019-03-23T05:05:27.574Z,93.97
2019-03-23T05:06:32.728Z,82.00
2019-03-23T05:07:38.026Z,89.85
2019-03-23T05:08:44.171Z,81.22
2019-03-23T05:09:49.408Z,82.70
2019-03-23T05:10:54.613Z,108.15
2019-03-23T05:11:59.975Z,73.10
2019-03-23T05:13:05.438Z,125.95
2019-03-23T05:14:11.026Z,103.83
2019-03-23T05:15:16.152Z,112.42
2019-03-23T05:16:21.570Z,152.65
2019-03-23T05:17:26.852Z,110.92
2019-03-23T05:18:32.163Z,177.72
2019-03-23T05:19:37.394Z,73.97
2019-03-23T05:20:42.602Z,122.13
2019-03-23T05:21:49.091Z,102.32
2019-03-23T05:22:54.271Z,87.70
2019-03-23T05:23:59.563Z,98.52
2019-03-23T05:25:05.243Z,119.33
2019-03-23T05:26:10.486Z,95.55
2019-03-23T05:27:15.644Z,88.00
2019-03-23T05:28:20.800Z,81.32
2019-03-23T05:29:25.923Z,102.97
2019-03-23T05:30:31.106Z,83.95
2019-03-23T05:31:36.263Z,73.05
2019-03-23T05:32:41.451Z,126.07
2019-03-23T05:33:46.595Z,67.32
2019-03-23T05:34:51.777Z,131.55
2019-03-23T05:35:56.977Z,72.45
2019-03-23T05:37:02.136Z,80.47
2019-03-23T05:38:07.236Z,102.10
2019-03-23T05:39:12.377Z,116.57
2019-03-23T05:40:17.685Z,73.47
2019-03-23T05:41:22.835Z,121.70
2019-03-23T05:42:27.943Z,91.08
2019-03-23T05:43:33.073Z,82.22
2019-03-23T05:44:38.195Z,95.85
2019-03-23T05:45:44.415Z,107.78
2019-03-23T05:46:49.516Z,90.45
2019-03-23T05:47:54.672Z,65.20
2019-03-23T05:48:59.824Z,113.50
2019-03-23T05:50:05.883Z,68.30
2019-03-23T05:51:11.089Z,232.52
2019-03-23T05:52:16.239Z,105.25
2019-03-23T05:53:21.534Z,73.78
2019-03-23T05:54:27.721Z,66.62
2019-03-23T05:55:32.861Z,431.57
2019-03-23T05:56:37.974Z,90.87
2019-03-23T05:57:43.258Z,101.07
2019-03-23T05:58:48.421Z,108.95
2019-03-23T05:59:53.556Z,71.45
2019-03-23T06:00:58.700Z,74.95
2019-03-23T06:02:03.952Z,63.55
2019-03-23T06:03:09.063Z,61.92
2019-03-23T06:04:14.254Z,67.58
2019-03-23T06:05:19.411Z,62.73
2019-03-23T06:06:24.520Z,66.60
2019-03-23T06:07:29.812Z,80.70
2019-03-23T06:08:35.019Z,74.37
2019-03-23T06:09:40.115Z,74.87
2019-03-23T06:10:45.359Z,68.15
2019-03-23T06:11:50.472Z,65.50
2019-03-23T06:12:55.634Z,60.10
2019-03-23T06:14:00.814Z,55.15
2019-03-23T06:15:07.234Z,107.32
2019-03-23T06:16:12.402Z,81.37
2019-03-23T06:17:17.536Z,104.92
2019-03-23T06:18:22.706Z,88.22
2019-03-23T06:19:27.856Z,75.03
2019-03-23T06:20:33.040Z,61.85
2019-03-23T06:21:38.159Z,57.60
2019-03-23T06:22:43.283Z,78.80
2019-03-23T06:23:48.412Z,59.70
2019-03-23T06:24:53.515Z,88.90
2019-03-23T06:25:58.640Z,59.85
2019-03-23T06:27:03.895Z,66.45
2019-03-23T06:28:09.074Z,70.03
2019-03-23T06:29:14.210Z,77.30
2019-03-23T06:30:19.372Z,87.67
2019-03-23T06:31:24.532Z,88.87
2019-03-23T06:32:29.692Z,64.55
2019-03-23T06:33:34.819Z,91.02
2019-03-23T06:34:40.031Z,60.98
2019-03-23T06:35:45.164Z,90.83
2019-03-23T06:36:50.432Z,70.60
2019-03-23T06:37:55.729Z,56.55
2019-03-23T06:39:05.460Z,83.47
2019-03-23T06:40:10.775Z,57.35
2019-03-23T06:41:16.668Z,55.00
2019-03-23T06:42:21.808Z,69.00
2019-03-23T06:43:26.965Z,58.25
2019-03-23T06:44:32.098Z,80.42
2019-03-23T06:45:37.272Z,55.33
2019-03-23T06:46:42.448Z,59.60
2019-03-23T06:47:47.931Z,52.95
2019-03-23T06:48:53.371Z,68.00
2019-03-23T06:49:58.579Z,84.28
2019-03-23T06:51:03.799Z,66.50
2019-03-23T06:52:10.032Z,49.20
2019-03-23T06:53:15.118Z,63.70
2019-03-23T06:54:21.231Z,55.25
2019-03-23T06:55:26.464Z,113.12
2019-03-23T06:56:31.619Z,100.10
2019-03-23T06:57:36.826Z,66.77
2019-03-23T06:58:41.948Z,48.55
2019-03-23T06:59:47.147Z,94.70
2019-03-23T07:00:52.366Z,75.35
2019-03-23T07:01:59.245Z,96.25
2019-03-23T07:03:04.629Z,52.30
2019-03-23T07:04:09.919Z,72.30
2019-03-23T07:05:15.468Z,60.40
2019-03-23T07:06:20.797Z,52.00
2019-03-23T07:07:26.361Z,70.40
2019-03-23T07:08:32.398Z,72.47
2019-03-23T07:09:37.754Z,66.10
2019-03-23T07:10:42.977Z,52.75
2019-03-23T07:11:48.199Z,56.85
2019-03-23T07:12:53.484Z,55.85
2019-03-23T07:13:58.624Z,54.10
2019-03-23T07:15:04.043Z,58.60
2019-03-23T07:16:09.225Z,50.90
2019-03-23T07:17:14.554Z,52.45
2019-03-23T07:18:19.868Z,56.42
2019-03-23T07:19:25.216Z,55.17
2019-03-23T07:20:30.855Z,60.00
2019-03-23T07:21:37.015Z,54.40
2019-03-23T07:22:42.245Z,57.40
2019-03-23T07:23:47.403Z,54.15
2019-03-23T07:24:52.602Z,46.02
2019-03-23T07:25:57.764Z,48.25
2019-03-23T07:27:03.567Z,47.40
2019-03-23T07:28:08.851Z,46.40
2019-03-23T07:29:14.011Z,43.90
2019-03-23T07:30:19.700Z,44.20
2019-03-23T07:31:25.059Z,41.28
2019-03-23T07:32:30.234Z,43.80
2019-03-23T07:33:36.475Z,42.88
2019-03-23T07:34:41.798Z,41.48
2019-03-23T07:35:47.169Z,38.70
2019-03-23T07:36:52.458Z,40.95
2019-03-23T07:37:57.591Z,40.90
2019-03-23T07:39:03.428Z,39.67
2019-03-23T07:40:09.167Z,41.95
2019-03-23T07:41:14.662Z,44.18
2019-03-23T07:42:19.949Z,42.62
2019-03-23T07:43:25.083Z,45.92
2019-03-23T07:44:30.421Z,42.98
2019-03-23T07:45:35.830Z,44.77
2019-03-23T07:46:41.213Z,41.98
2019-03-23T07:47:46.409Z,41.42
2019-03-23T07:48:51.697Z,42.50
2019-03-23T07:49:56.948Z,40.83
2019-03-23T07:51:02.218Z,42.62
2019-03-23T07:52:07.715Z,41.70
2019-03-23T07:53:12.946Z,43.60
2019-03-23T07:54:18.139Z,44.55
2019-03-23T07:55:23.352Z,72.67
2019-03-23T07:56:28.512Z,48.50
2019-03-23T07:57:33.683Z,43.92
2019-03-23T07:58:38.811Z,45.48
2019-03-23T07:59:43.969Z,41.98
2019-03-23T08:00:49.159Z,41.58
2019-03-23T08:01:54.440Z,44.23
2019-03-23T08:02:59.649Z,43.25
2019-03-23T08:04:04.900Z,42.17
2019-03-23T08:05:10.348Z,45.65
2019-03-23T08:06:15.542Z,43.10
2019-03-23T08:07:20.703Z,47.30
2019-03-23T08:08:25.973Z,42.62
2019-03-23T08:09:37.571Z,42.90
2019-03-23T08:10:38.012Z,41.53
2019-03-23T08:11:43.182Z,41.05
2019-03-23T08:12:48.306Z,42.25
2019-03-23T08:13:53.583Z,45.85
2019-03-23T08:14:58.781Z,49.42
2019-03-23T08:16:03.904Z,47.65
2019-03-23T08:17:09.130Z,43.60
2019-03-23T08:18:15.285Z,47.90
2019-03-23T08:19:20.443Z,46.33
2019-03-23T08:20:25.793Z,49.58
2019-03-23T08:21:31.297Z,44.13
2019-03-23T08:22:36.793Z,48.02
2019-03-23T08:23:41.927Z,45.78
2019-03-23T08:24:48.176Z,48.30
2019-03-23T08:25:54.291Z,48.68
2019-03-23T08:26:59.467Z,53.52
2019-03-23T08:28:04.639Z,49.67
2019-03-23T08:29:09.863Z,47.78
2019-03-23T08:30:15.059Z,49.25
2019-03-23T08:31:20.250Z,49.90
2019-03-23T08:32:25.411Z,47.93
2019-03-23T08:33:30.574Z,47.25
2019-03-23T08:34:35.712Z,44.33
2019-03-23T08:35:40.919Z,57.58
2019-03-23T08:36:46.098Z,52.78
2019-03-23T08:37:51.286Z,51.08
2019-03-23T08:38:56.439Z,47.88
2019-03-23T08:40:01.729Z,46.68
2019-03-23T08:41:06.915Z,46.23
2019-03-23T08:42:12.161Z,46.15
2019-03-23T08:43:17.372Z,50.92
2019-03-23T08:44:27.632Z,48.20
2019-03-23T08:45:32.900Z,52.78
2019-03-23T08:46:38.009Z,59.90
2019-03-23T08:47:43.212Z,52.50
2019-03-23T08:48:48.431Z,116.35
2019-03-23T08:49:53.582Z,70.40
2019-03-23T08:50:58.746Z,54.38
2019-03-23T08:52:03.977Z,72.17
2019-03-23T08:53:09.172Z,66.35
2019-03-23T08:54:14.418Z,50.48
2019-03-23T08:55:19.681Z,50.28
2019-03-23T08:56:24.961Z,62.93
2019-03-23T08:57:30.149Z,611.58
2019-03-23T08:58:34.065Z,88.45
2019-03-23T08:59:39.284Z,78.70
2019-03-23T09:00:44.457Z,58.83
2019-03-23T09:01:49.583Z,84.90
2019-03-23T09:02:54.781Z,82.55
2019-03-23T09:04:00.027Z,65.70
2019-03-23T09:05:06.411Z,52.50
2019-03-23T09:06:11.528Z,58.87
2019-03-23T09:07:16.628Z,57.73
2019-03-23T09:08:21.722Z,59.23
2019-03-23T09:09:26.971Z,61.60
2019-03-23T09:10:32.555Z,58.70
2019-03-23T09:11:37.703Z,57.65
2019-03-23T09:12:42.855Z,61.28
2019-03-23T09:13:49.005Z,56.50
2019-03-23T09:14:54.164Z,65.22
2019-03-23T09:15:59.376Z,68.60
2019-03-23T09:17:04.814Z,65.65
2019-03-23T09:18:09.998Z,64.80
2019-03-23T09:19:15.153Z,60.48
2019-03-23T09:20:21.721Z,57.30
2019-03-23T09:21:26.943Z,66.20
2019-03-23T09:22:32.057Z,64.27
2019-03-23T09:23:37.796Z,61.53
2019-03-23T09:24:42.924Z,63.68
2019-03-23T09:25:48.083Z,58.42
2019-03-23T09:26:54.396Z,60.12
2019-03-23T09:27:59.588Z,58.28
2019-03-23T09:29:04.741Z,59.85
2019-03-23T09:30:10.866Z,60.95
2019-03-23T09:31:16.009Z,67.62
2019-03-23T09:32:21.573Z,67.60
2019-03-23T09:33:26.669Z,60.08
2019-03-23T09:34:31.866Z,63.52
2019-03-23T09:35:39.341Z,58.80
2019-03-23T09:36:44.173Z,59.83
2019-03-23T09:37:49.424Z,61.95
2019-03-23T09:38:55.686Z,69.35
2019-03-23T09:40:09.977Z,69.92
2019-03-23T09:41:09.857Z,61.75
2019-03-23T09:42:15.064Z,60.90
2019-03-23T09:43:20.216Z,60.15
2019-03-23T09:44:25.359Z,59.77
2019-03-23T09:45:30.493Z,60.10
2019-03-23T09:46:35.679Z,62.00
2019-03-23T09:47:40.899Z,67.42
2019-03-23T09:48:46.132Z,66.62
2019-03-23T09:49:51.440Z,65.20
2019-03-23T09:50:56.596Z,59.00
2019-03-23T09:52:02.865Z,62.40
2019-03-23T09:53:08.228Z,64.87
2019-03-23T09:54:14.346Z,59.27
2019-03-23T09:55:19.782Z,61.92
2019-03-23T09:56:24.976Z,60.28
2019-03-23T09:57:30.247Z,59.00
2019-03-23T09:58:35.538Z,58.78
2019-03-23T09:59:40.905Z,58.05
2019-03-23T10:00:46.118Z,58.78
2019-03-23T10:01:51.315Z,56.48
2019-03-23T10:02:56.617Z,62.13
2019-03-23T10:04:01.775Z,59.53
2019-03-23T10:05:07.887Z,58.02
2019-03-23T10:06:13.120Z,59.27
2019-03-23T10:07:18.348Z,53.45
2019-03-23T10:08:23.509Z,55.80
2019-03-23T10:09:28.648Z,60.73
2019-03-23T10:10:33.866Z,59.42
2019-03-23T10:11:39.030Z,56.53
2019-03-23T10:12:44.256Z,56.75
2019-03-23T10:13:49.453Z,54.93
2019-03-23T10:14:54.667Z,54.25
2019-03-23T10:15:59.848Z,59.13
2019-03-23T10:17:05.069Z,53.90
2019-03-23T10:18:10.237Z,56.98
2019-03-23T10:19:16.383Z,52.53
2019-03-23T10:20:21.511Z,53.33
2019-03-23T10:21:26.630Z,56.63
2019-03-23T10:22:32.867Z,57.67
2019-03-23T10:23:38.226Z,49.30
2019-03-23T10:24:43.811Z,77.15
2019-03-23T10:25:49.102Z,60.48
2019-03-23T10:26:54.421Z,59.77
2019-03-23T10:27:59.638Z,57.08
2019-03-23T10:29:05.934Z,57.10
2019-03-23T10:30:11.711Z,72.87
2019-03-23T10:31:16.890Z,58.92
2019-03-23T10:32:23.419Z,54.38
2019-03-23T10:33:29.659Z,54.48
2019-03-23T10:34:35.077Z,66.00
2019-03-23T10:35:40.264Z,53.58
2019-03-23T10:36:45.466Z,55.43
2019-03-23T10:37:50.671Z,61.10
2019-03-23T10:38:55.875Z,57.45
2019-03-23T10:40:01.104Z,58.05
2019-03-23T10:41:06.722Z,75.25
2019-03-23T10:42:12.347Z,51.68
2019-03-23T10:43:17.651Z,54.98
2019-03-23T10:44:25.592Z,61.60
2019-03-23T10:45:30.618Z,52.78
2019-03-23T10:46:35.858Z,54.05
2019-03-23T10:47:49.708Z,52.27
2019-03-23T10:48:55.064Z,52.43
2019-03-23T10:50:00.330Z,55.20
2019-03-23T10:51:05.671Z,50.50
2019-03-23T10:52:10.855Z,58.00
2019-03-23T10:53:22.919Z,53.55
2019-03-23T10:54:23.054Z,52.33
2019-03-23T10:55:28.194Z,56.35
2019-03-23T10:56:33.351Z,58.30
2019-03-23T10:57:38.570Z,56.05
2019-03-23T10:58:43.876Z,57.95
2019-03-23T10:59:49.037Z,53.08
2019-03-23T11:00:54.225Z,56.80
2019-03-23T11:01:59.379Z,54.18
2019-03-23T11:03:04.579Z,60.70
2019-03-23T11:04:09.718Z,53.42
2019-03-23T11:05:14.833Z,59.35
2019-03-23T11:06:19.986Z,54.93
2019-03-23T11:07:25.164Z,48.90
2019-03-23T11:08:30.345Z,49.95
2019-03-23T11:09:35.599Z,51.58
2019-03-23T11:10:41.994Z,49.50
2019-03-23T11:11:47.421Z,53.55
2019-03-23T11:12:52.563Z,49.35
2019-03-23T11:13:57.720Z,52.43
2019-03-23T11:15:02.824Z,53.20
2019-03-23T11:16:08.067Z,46.50
2019-03-23T11:17:13.203Z,47.73
2019-03-23T11:18:18.399Z,49.33
2019-03-23T11:19:23.694Z,47.00
2019-03-23T11:20:28.835Z,44.70
2019-03-23T11:21:33.994Z,45.75
2019-03-23T11:22:39.397Z,48.87
2019-03-23T11:23:45.569Z,43.00
2019-03-23T11:24:51.070Z,49.38
2019-03-23T11:25:56.367Z,45.40
2019-03-23T11:27:01.568Z,49.95
2019-03-23T11:28:09.853Z,47.98
2019-03-23T11:29:15.207Z,48.48
2019-03-23T11:30:20.316Z,51.42
2019-03-23T11:31:25.452Z,50.75
2019-03-23T11:32:30.648Z,54.18
2019-03-23T11:33:35.858Z,53.65
2019-03-23T11:34:41.044Z,52.55
2019-03-23T11:35:46.265Z,50.90
2019-03-23T11:36:51.467Z,47.93
2019-03-23T11:37:57.359Z,53.05
2019-03-23T11:39:04.455Z,51.75
2019-03-23T11:40:10.621Z,54.20
2019-03-23T11:41:15.836Z,57.03
2019-03-23T11:42:21.019Z,54.45
2019-03-23T11:43:26.289Z,61.70
2019-03-23T11:44:31.482Z,52.40
2019-03-23T11:45:36.698Z,69.25
2019-03-23T11:46:41.885Z,53.75
2019-03-23T11:47:47.989Z,55.75
2019-03-23T11:48:53.137Z,58.65
2019-03-23T11:49:58.321Z,59.35
2019-03-23T11:51:03.572Z,61.33
2019-03-23T11:52:09.820Z,55.50
2019-03-23T11:53:14.997Z,55.10
2019-03-23T11:54:20.134Z,57.15
2019-03-23T11:55:25.435Z,60.85
2019-03-23T11:56:30.774Z,58.40
2019-03-23T11:57:35.975Z,59.08
2019-03-23T11:58:41.196Z,62.17
2019-03-23T11:59:46.396Z,59.35
2019-03-23T12:00:51.636Z,64.15
2019-03-23T12:01:56.930Z,63.38
2019-03-23T12:03:02.191Z,60.08
2019-03-23T12:04:07.413Z,66.82
2019-03-23T12:05:13.073Z,65.90
2019-03-23T12:06:18.229Z,69.60
2019-03-23T12:07:23.582Z,75.10
2019-03-23T12:08:28.801Z,76.02
2019-03-23T12:09:34.045Z,71.87
2019-03-23T12:10:39.143Z,70.78
2019-03-23T12:11:44.889Z,75.32
2019-03-23T12:12:50.000Z,70.62
2019-03-23T12:13:55.470Z,71.22
2019-03-23T12:15:00.779Z,76.28
2019-03-23T12:16:05.908Z,70.57
2019-03-23T12:17:11.072Z,75.67
2019-03-23T12:18:16.493Z,74.53
2019-03-23T12:19:21.868Z,73.70
2019-03-23T12:20:27.226Z,74.70
2019-03-23T12:21:32.453Z,80.85
2019-03-23T12:22:37.631Z,77.87
2019-03-23T12:23:42.803Z,77.62
2019-03-23T12:24:48.944Z,81.35
2019-03-23T12:25:54.071Z,74.60
2019-03-23T12:26:59.287Z,77.37
2019-03-23T12:28:05.832Z,73.57
2019-03-23T12:29:10.991Z,70.65
2019-03-23T12:30:16.983Z,77.62
2019-03-23T12:31:22.112Z,74.82
2019-03-23T12:32:27.341Z,80.80
2019-03-23T12:33:32.486Z,80.40
2019-03-23T12:34:37.824Z,74.97
2019-03-23T12:35:43.032Z,76.87
2019-03-23T12:36:48.216Z,83.67
2019-03-23T12:37:53.316Z,84.42
2019-03-23T12:38:58.463Z,91.92
2019-03-23T12:40:03.817Z,83.27
2019-03-23T12:41:18.467Z,86.60
2019-03-23T12:42:15.989Z,84.13
2019-03-23T12:43:21.229Z,79.00
2019-03-23T12:44:26.419Z,83.05
2019-03-23T12:45:31.736Z,77.20
2019-03-23T12:46:36.912Z,82.57
2019-03-23T12:47:42.015Z,86.87
2019-03-23T12:48:47.129Z,76.35
2019-03-23T12:49:52.330Z,80.72
2019-03-23T12:50:57.528Z,84.22
2019-03-23T12:52:02.760Z,79.22
2019-03-23T12:53:07.951Z,83.90
2019-03-23T12:54:13.086Z,83.80
2019-03-23T12:55:18.295Z,89.90
2019-03-23T12:56:23.448Z,85.50
2019-03-23T12:57:28.630Z,83.42
2019-03-23T12:58:36.842Z,93.45
2019-03-23T12:59:42.016Z,81.37
2019-03-23T13:00:48.223Z,84.22
2019-03-23T13:01:53.359Z,82.25
2019-03-23T13:02:58.541Z,82.33
2019-03-23T13:04:03.732Z,84.17
2019-03-23T13:05:10.251Z,84.58
2019-03-23T13:06:15.482Z,84.50
2019-03-23T13:07:20.739Z,81.50
2019-03-23T13:08:26.063Z,83.72
2019-03-23T13:09:32.112Z,81.97
2019-03-23T13:10:37.267Z,82.95
2019-03-23T13:11:42.453Z,78.40
2019-03-23T13:12:47.668Z,90.42
2019-03-23T13:13:52.797Z,90.35
2019-03-23T13:14:57.907Z,95.10
2019-03-23T13:16:03.175Z,88.95
2019-03-23T13:17:08.309Z,83.15
2019-03-23T13:18:13.574Z,82.70
2019-03-23T13:19:18.802Z,83.42
2019-03-23T13:20:23.998Z,83.45
2019-03-23T13:21:29.420Z,88.87
2019-03-23T13:22:34.643Z,89.05
2019-03-23T13:23:39.927Z,83.37
2019-03-23T13:24:45.095Z,85.53
2019-03-23T13:25:50.447Z,87.25
2019-03-23T13:26:55.612Z,80.60
2019-03-23T13:28:00.779Z,85.53
2019-03-23T13:29:05.983Z,81.82
2019-03-23T13:30:11.812Z,88.30
2019-03-23T13:31:16.939Z,80.22
2019-03-23T13:32:22.067Z,93.37
2019-03-23T13:33:27.312Z,91.47
2019-03-23T13:34:32.461Z,93.12
2019-03-23T13:35:37.651Z,92.55
2019-03-23T13:36:42.781Z,89.92
2019-03-23T13:37:47.903Z,88.33
2019-03-23T13:38:53.071Z,92.22
2019-03-23T13:39:58.191Z,99.60
2019-03-23T13:41:03.479Z,94.62
2019-03-23T13:42:08.623Z,91.40
2019-03-23T13:43:13.819Z,99.47
2019-03-23T13:44:19.059Z,97.57
2019-03-23T13:45:24.205Z,101.02
2019-03-23T13:46:29.361Z,97.50
2019-03-23T13:47:34.611Z,108.57
2019-03-23T13:48:39.880Z,108.60
2019-03-23T13:49:45.020Z,89.05
2019-03-23T13:50:50.287Z,92.90
2019-03-23T13:51:55.522Z,96.00